sensor_id;sensor_type;location;lat;lon;timestamp;pressure;altitude;pressure_sealevel;temperature;humidity
23589;BME280;11972;48.078;11.876;2022-12-20T00:01:31;96093.97;;;-0.01;100.00
23589;BME280;11972;48.078;11.876;2022-12-20T00:05:35;96090.66;;;-0.03;100.00
23589;BME280;11972;48.078;11.876;2022-12-20T00:09:36;96096.06;;;-0.06;100.00
23589;BME280;11972;48.078;11.876;2022-12-20T00:13:36;96090.16;;;-0.08;100.00
23589;BME280;11972;48.078;11.876;2022-12-20T00:17:37;96092.94;;;-0.11;100.00
23589;BME280;11972;48.078;11.876;2022-12-20T00:21:37;96088.91;;;-0.15;100.00
23589;BME280;11972;48.078;11.876;2022-12-20T00:25:37;96090.03;;;-0.19;100.00
23589;BME280;11972;48.078;11.876;2022-12-20T00:29:38;96084.09;;;-0.21;100.00
23589;BME280;11972;48.078;11.876;2022-12-20T00:33:39;96083.19;;;-0.20;100.00
23589;BME280;11972;48.078;11.876;2022-12-20T00:37:39;96088.25;;;-0.18;100.00
23589;BME280;11972;48.078;11.876;2022-12-20T00:41:40;96072.56;;;-0.17;100.00
23589;BME280;11972;48.078;11.876;2022-12-20T00:45:41;96073.31;;;-0.15;100.00
23589;BME280;11972;48.078;11.876;2022-12-20T00:49:41;96074.03;;;-0.13;100.00
23589;BME280;11972;48.078;11.876;2022-12-20T00:53:42;96081.63;;;-0.10;100.00
23589;BME280;11972;48.078;11.876;2022-12-20T00:57:42;96076.22;;;-0.07;100.00
23589;BME280;11972;48.078;11.876;2022-12-20T01:01:43;96067.50;;;-0.06;100.00
23589;BME280;11972;48.078;11.876;2022-12-20T01:05:57;96063.66;;;0.00;100.00
23589;BME280;11972;48.078;11.876;2022-12-20T01:09:58;96074.66;;;0.04;100.00
23589;BME280;11972;48.078;11.876;2022-12-20T01:14:02;96082.44;;;0.04;100.00
23589;BME280;11972;48.078;11.876;2022-12-20T01:18:03;96079.84;;;0.04;100.00
23589;BME280;11972;48.078;11.876;2022-12-20T01:22:03;96075.47;;;0.04;100.00
23589;BME280;11972;48.078;11.876;2022-12-20T01:26:05;96074.25;;;0.10;100.00
23589;BME280;11972;48.078;11.876;2022-12-20T01:30:08;96080.16;;;0.12;100.00
23589;BME280;11972;48.078;11.876;2022-12-20T01:34:10;96069.06;;;0.10;100.00
23589;BME280;11972;48.078;11.876;2022-12-20T01:38:10;96076.72;;;0.11;100.00
23589;BME280;11972;48.078;11.876;2022-12-20T01:42:13;96064.56;;;0.12;100.00
23589;BME280;11972;48.078;11.876;2022-12-20T01:46:14;96064.50;;;0.13;100.00
23589;BME280;11972;48.078;11.876;2022-12-20T01:50:15;96048.06;;;0.13;100.00
23589;BME280;11972;48.078;11.876;2022-12-20T01:54:23;96046.19;;;0.15;100.00
23589;BME280;11972;48.078;11.876;2022-12-20T01:58:27;96049.72;;;0.14;100.00
23589;BME280;11972;48.078;11.876;2022-12-20T02:02:27;96061.06;;;0.13;100.00
23589;BME280;11972;48.078;11.876;2022-12-20T02:06:28;96060.31;;;0.11;100.00
23589;BME280;11972;48.078;11.876;2022-12-20T02:15:07;96044.72;;;0.11;100.00
23589;BME280;11972;48.078;11.876;2022-12-20T02:28:14;96030.41;;;0.18;100.00
23589;BME280;11972;48.078;11.876;2022-12-20T02:32:51;96026.03;;;0.18;100.00
23589;BME280;11972;48.078;11.876;2022-12-20T02:36:50;96032.03;;;0.19;100.00
23589;BME280;11972;48.078;11.876;2022-12-20T02:40:54;96028.09;;;0.26;100.00
23589;BME280;11972;48.078;11.876;2022-12-20T02:45:02;96028.09;;;0.26;100.00
23589;BME280;11972;48.078;11.876;2022-12-20T02:49:19;96022.91;;;0.26;100.00
23589;BME280;11972;48.078;11.876;2022-12-20T02:53:21;96034.25;;;0.25;100.00
23589;BME280;11972;48.078;11.876;2022-12-20T03:01:29;96040.34;;;0.24;100.00
23589;BME280;11972;48.078;11.876;2022-12-20T03:05:34;96044.84;;;0.22;100.00
23589;BME280;11972;48.078;11.876;2022-12-20T03:09:37;96026.66;;;0.22;100.00
23589;BME280;11972;48.078;11.876;2022-12-20T03:13:38;96010.31;;;0.20;100.00
23589;BME280;11972;48.078;11.876;2022-12-20T03:17:38;96006.06;;;0.19;100.00
23589;BME280;11972;48.078;11.876;2022-12-20T03:21:38;96009.63;;;0.18;100.00
23589;BME280;11972;48.078;11.876;2022-12-20T03:25:39;96022.47;;;0.19;100.00
23589;BME280;11972;48.078;11.876;2022-12-20T03:29:39;96019.88;;;0.19;100.00
23589;BME280;11972;48.078;11.876;2022-12-20T03:33:39;96042.25;;;0.22;100.00
23589;BME280;11972;48.078;11.876;2022-12-20T03:37:40;96035.97;;;0.24;100.00
23589;BME280;11972;48.078;11.876;2022-12-20T03:41:40;96034.94;;;0.27;100.00
23589;BME280;11972;48.078;11.876;2022-12-20T03:45:41;96027.88;;;0.29;100.00
23589;BME280;11972;48.078;11.876;2022-12-20T03:49:41;96007.81;;;0.31;100.00
23589;BME280;11972;48.078;11.876;2022-12-20T03:53:41;95998.16;;;0.33;100.00
23589;BME280;11972;48.078;11.876;2022-12-20T03:57:42;95997.28;;;0.33;100.00
23589;BME280;11972;48.078;11.876;2022-12-20T04:01:42;95995.75;;;0.30;100.00
23589;BME280;11972;48.078;11.876;2022-12-20T04:05:42;95993.50;;;0.26;100.00
23589;BME280;11972;48.078;11.876;2022-12-20T04:09:42;95981.53;;;0.23;100.00
23589;BME280;11972;48.078;11.876;2022-12-20T04:13:48;95995.34;;;0.23;100.00
23589;BME280;11972;48.078;11.876;2022-12-20T04:17:48;95992.88;;;0.22;100.00
23589;BME280;11972;48.078;11.876;2022-12-20T04:21:48;95996.41;;;0.21;100.00
23589;BME280;11972;48.078;11.876;2022-12-20T04:25:49;96002.31;;;0.23;100.00
23589;BME280;11972;48.078;11.876;2022-12-20T04:29:49;95998.06;;;0.22;100.00
23589;BME280;11972;48.078;11.876;2022-12-20T04:33:50;95989.31;;;0.23;100.00
23589;BME280;11972;48.078;11.876;2022-12-20T04:37:50;95993.56;;;0.24;100.00
23589;BME280;11972;48.078;11.876;2022-12-20T04:41:51;95996.91;;;0.26;100.00
23589;BME280;11972;48.078;11.876;2022-12-20T04:45:53;95982.97;;;0.27;100.00
23589;BME280;11972;48.078;11.876;2022-12-20T04:49:55;95983.59;;;0.31;100.00
23589;BME280;11972;48.078;11.876;2022-12-20T04:53:55;95991.28;;;0.32;100.00
23589;BME280;11972;48.078;11.876;2022-12-20T04:57:56;95991.28;;;0.32;100.00
23589;BME280;11972;48.078;11.876;2022-12-20T05:01:56;95985.16;;;0.33;100.00
23589;BME280;11972;48.078;11.876;2022-12-20T05:05:56;95975.69;;;0.32;100.00
23589;BME280;11972;48.078;11.876;2022-12-20T05:09:57;95968.84;;;0.31;100.00
23589;BME280;11972;48.078;11.876;2022-12-20T05:13:57;95961.97;;;0.30;100.00
23589;BME280;11972;48.078;11.876;2022-12-20T05:17:57;95965.53;;;0.29;100.00
23589;BME280;11972;48.078;11.876;2022-12-20T05:21:59;95949.19;;;0.27;100.00
23589;BME280;11972;48.078;11.876;2022-12-20T05:26:18;95935.16;;;0.30;100.00
23589;BME280;11972;48.078;11.876;2022-12-20T05:30:18;95928.09;;;0.32;100.00
23589;BME280;11972;48.078;11.876;2022-12-20T05:34:19;95927.13;;;0.33;100.00
23589;BME280;11972;48.078;11.876;2022-12-20T05:38:20;95921.84;;;0.34;100.00
23589;BME280;11972;48.078;11.876;2022-12-20T05:42:20;95923.28;;;0.38;100.00
23589;BME280;11972;48.078;11.876;2022-12-20T05:46:20;95927.41;;;0.41;100.00
23589;BME280;11972;48.078;11.876;2022-12-20T05:50:21;95926.38;;;0.43;100.00
23589;BME280;11972;48.078;11.876;2022-12-20T05:54:21;95925.56;;;0.43;100.00
23589;BME280;11972;48.078;11.876;2022-12-20T05:58:22;95917.63;;;0.44;100.00
23589;BME280;11972;48.078;11.876;2022-12-20T06:02:22;95910.78;;;0.43;100.00
23589;BME280;11972;48.078;11.876;2022-12-20T06:06:22;95912.44;;;0.44;100.00
23589;BME280;11972;48.078;11.876;2022-12-20T06:10:23;95910.16;;;0.40;100.00
23589;BME280;11972;48.078;11.876;2022-12-20T06:14:23;95909.81;;;0.33;100.00
23589;BME280;11972;48.078;11.876;2022-12-20T06:18:24;95908.78;;;0.23;100.00
23589;BME280;11972;48.078;11.876;2022-12-20T06:22:25;95907.38;;;0.06;100.00
23589;BME280;11972;48.078;11.876;2022-12-20T06:26:25;95902.22;;;-0.07;100.00
23589;BME280;11972;48.078;11.876;2022-12-20T06:30:25;95905.16;;;-0.11;100.00
23589;BME280;11972;48.078;11.876;2022-12-20T06:34:26;95917.59;;;-0.04;100.00
23589;BME280;11972;48.078;11.876;2022-12-20T06:38:26;95910.69;;;0.08;100.00
23589;BME280;11972;48.078;11.876;2022-12-20T06:42:27;95907.34;;;0.19;100.00
23589;BME280;11972;48.078;11.876;2022-12-20T06:46:27;95912.22;;;0.23;100.00
23589;BME280;11972;48.078;11.876;2022-12-20T06:50:27;95910.00;;;0.30;100.00
23589;BME280;11972;48.078;11.876;2022-12-20T06:54:28;95909.69;;;0.35;100.00
23589;BME280;11972;48.078;11.876;2022-12-20T06:58:28;95898.13;;;0.39;100.00
23589;BME280;11972;48.078;11.876;2022-12-20T07:02:28;95906.31;;;0.45;100.00
23589;BME280;11972;48.078;11.876;2022-12-20T07:06:29;95908.59;;;0.50;100.00
23589;BME280;11972;48.078;11.876;2022-12-20T07:10:30;95904.00;;;0.54;100.00
23589;BME280;11972;48.078;11.876;2022-12-20T07:14:30;95897.63;;;0.58;100.00
23589;BME280;11972;48.078;11.876;2022-12-20T07:18:31;95900.94;;;0.60;100.00
23589;BME280;11972;48.078;11.876;2022-12-20T07:22:31;95900.47;;;0.66;100.00
23589;BME280;11972;48.078;11.876;2022-12-20T07:26:33;95895.66;;;0.72;100.00
23589;BME280;11972;48.078;11.876;2022-12-20T07:30:35;95891.06;;;0.76;100.00
23589;BME280;11972;48.078;11.876;2022-12-20T07:34:36;95893.44;;;0.79;100.00
23589;BME280;11972;48.078;11.876;2022-12-20T07:38:37;95883.06;;;0.90;100.00
23589;BME280;11972;48.078;11.876;2022-12-20T07:42:38;95889.38;;;0.99;100.00
23589;BME280;11972;48.078;11.876;2022-12-20T07:46:39;95886.19;;;1.07;100.00
23589;BME280;11972;48.078;11.876;2022-12-20T07:50:40;95900.16;;;1.17;100.00
23589;BME280;11972;48.078;11.876;2022-12-20T07:54:46;95904.44;;;1.29;100.00
23589;BME280;11972;48.078;11.876;2022-12-20T07:58:51;95912.28;;;1.40;100.00
23589;BME280;11972;48.078;11.876;2022-12-20T08:03:16;95912.28;;;1.52;100.00
23589;BME280;11972;48.078;11.876;2022-12-20T08:07:18;95907.06;;;1.63;100.00
23589;BME280;11972;48.078;11.876;2022-12-20T08:11:19;95906.13;;;1.75;100.00
23589;BME280;11972;48.078;11.876;2022-12-20T08:15:21;95903.16;;;1.91;100.00
23589;BME280;11972;48.078;11.876;2022-12-20T08:19:22;95904.91;;;2.02;100.00
23589;BME280;11972;48.078;11.876;2022-12-20T08:23:22;95912.03;;;2.11;100.00
23589;BME280;11972;48.078;11.876;2022-12-20T08:27:23;95907.75;;;2.21;100.00
23589;BME280;11972;48.078;11.876;2022-12-20T08:31:23;95909.59;;;2.30;100.00
23589;BME280;11972;48.078;11.876;2022-12-20T08:35:23;95896.78;;;2.38;100.00
23589;BME280;11972;48.078;11.876;2022-12-20T08:39:24;95895.34;;;2.45;100.00
23589;BME280;11972;48.078;11.876;2022-12-20T08:43:24;95897.22;;;2.55;100.00
23589;BME280;11972;48.078;11.876;2022-12-20T08:47:24;95893.88;;;2.64;100.00
23589;BME280;11972;48.078;11.876;2022-12-20T08:51:25;95901.66;;;2.75;100.00
23589;BME280;11972;48.078;11.876;2022-12-20T08:55:25;95898.75;;;2.89;100.00
23589;BME280;11972;48.078;11.876;2022-12-20T08:59:25;95898.72;;;3.01;100.00
23589;BME280;11972;48.078;11.876;2022-12-20T09:03:28;95896.28;;;3.09;100.00
23589;BME280;11972;48.078;11.876;2022-12-20T09:07:30;95895.97;;;3.23;100.00
23589;BME280;11972;48.078;11.876;2022-12-20T09:11:32;95902.44;;;3.29;100.00
23589;BME280;11972;48.078;11.876;2022-12-20T09:15:34;95907.28;;;3.33;100.00
23589;BME280;11972;48.078;11.876;2022-12-20T09:19:34;95899.13;;;3.47;100.00
23589;BME280;11972;48.078;11.876;2022-12-20T09:23:35;95894.00;;;3.67;100.00
23589;BME280;11972;48.078;11.876;2022-12-20T09:27:36;95886.38;;;3.85;100.00
23589;BME280;11972;48.078;11.876;2022-12-20T09:31:37;95866.19;;;3.96;100.00
23589;BME280;11972;48.078;11.876;2022-12-20T09:35:45;95873.78;;;4.00;100.00
23589;BME280;11972;48.078;11.876;2022-12-20T09:39:48;95865.09;;;3.99;100.00
23589;BME280;11972;48.078;11.876;2022-12-20T09:43:49;95860.81;;;3.98;100.00
23589;BME280;11972;48.078;11.876;2022-12-20T09:47:50;95861.78;;;3.87;100.00
23589;BME280;11972;48.078;11.876;2022-12-20T09:52:08;95860.53;;;3.91;100.00
23589;BME280;11972;48.078;11.876;2022-12-20T09:56:35;95853.63;;;3.90;100.00
23589;BME280;11972;48.078;11.876;2022-12-20T10:00:43;95848.88;;;4.05;100.00
23589;BME280;11972;48.078;11.876;2022-12-20T10:04:44;95838.44;;;4.15;100.00
23589;BME280;11972;48.078;11.876;2022-12-20T10:17:11;95816.72;;;4.43;100.00
23589;BME280;11972;48.078;11.876;2022-12-20T10:25:41;95799.78;;;4.47;100.00
23589;BME280;11972;48.078;11.876;2022-12-20T10:29:43;95793.75;;;4.57;100.00
23589;BME280;11972;48.078;11.876;2022-12-20T10:33:46;95801.16;;;4.71;100.00
23589;BME280;11972;48.078;11.876;2022-12-20T10:41:59;95792.59;;;4.88;100.00
23589;BME280;11972;48.078;11.876;2022-12-20T10:46:06;95784.88;;;4.96;100.00
23589;BME280;11972;48.078;11.876;2022-12-20T10:54:39;95776.16;;;5.15;100.00
23589;BME280;11972;48.078;11.876;2022-12-20T10:58:40;95767.16;;;5.18;100.00
23589;BME280;11972;48.078;11.876;2022-12-20T11:02:41;95752.16;;;5.20;100.00
23589;BME280;11972;48.078;11.876;2022-12-20T11:06:44;95751.88;;;5.23;100.00
23589;BME280;11972;48.078;11.876;2022-12-20T11:10:44;95743.25;;;5.31;100.00
23589;BME280;11972;48.078;11.876;2022-12-20T11:14:45;95735.47;;;5.21;100.00
23589;BME280;11972;48.078;11.876;2022-12-20T11:19:01;95737.53;;;5.17;100.00
23589;BME280;11972;48.078;11.876;2022-12-20T11:27:43;95718.88;;;5.30;100.00
23589;BME280;11972;48.078;11.876;2022-12-20T11:31:56;95713.34;;;5.33;100.00
23589;BME280;11972;48.078;11.876;2022-12-20T11:36:12;95711.72;;;5.32;100.00
23589;BME280;11972;48.078;11.876;2022-12-20T11:40:28;95697.69;;;5.23;100.00
23589;BME280;11972;48.078;11.876;2022-12-20T11:52:50;95690.56;;;5.16;100.00
23589;BME280;11972;48.078;11.876;2022-12-20T11:57:00;95696.34;;;5.10;100.00
23589;BME280;11972;48.078;11.876;2022-12-20T12:01:08;95687.84;;;5.08;100.00
23589;BME280;11972;48.078;11.876;2022-12-20T12:05:19;95673.66;;;5.10;100.00
23589;BME280;11972;48.078;11.876;2022-12-20T12:13:30;95649.81;;;5.04;100.00
23589;BME280;11972;48.078;11.876;2022-12-20T12:21:45;95646.13;;;4.96;100.00
23589;BME280;11972;48.078;11.876;2022-12-20T12:25:47;95637.19;;;4.89;100.00
23589;BME280;11972;48.078;11.876;2022-12-20T12:29:48;95636.81;;;4.84;100.00
23589;BME280;11972;48.078;11.876;2022-12-20T12:47:18;95638.28;;;4.96;100.00
23589;BME280;11972;48.078;11.876;2022-12-20T12:51:32;95646.81;;;4.98;100.00
23589;BME280;11972;48.078;11.876;2022-12-20T12:55:40;95642.16;;;4.92;100.00
23589;BME280;11972;48.078;11.876;2022-12-20T12:59:48;95637.78;;;4.83;100.00
23589;BME280;11972;48.078;11.876;2022-12-20T13:07:53;95634.47;;;4.81;100.00
23589;BME280;11972;48.078;11.876;2022-12-20T13:11:55;95629.31;;;4.62;100.00
23589;BME280;11972;48.078;11.876;2022-12-20T13:16:09;95617.50;;;4.58;100.00
23589;BME280;11972;48.078;11.876;2022-12-20T13:20:18;95624.53;;;4.47;100.00
23589;BME280;11972;48.078;11.876;2022-12-20T13:29:24;95634.28;;;4.55;100.00
23589;BME280;11972;48.078;11.876;2022-12-20T13:38:00;95623.59;;;4.48;100.00
23589;BME280;11972;48.078;11.876;2022-12-20T13:42:26;95612.47;;;4.37;100.00
23589;BME280;11972;48.078;11.876;2022-12-20T13:46:53;95613.72;;;4.33;100.00
23589;BME280;11972;48.078;11.876;2022-12-20T13:50:56;95607.66;;;4.22;100.00
23589;BME280;11972;48.078;11.876;2022-12-20T13:54:59;95611.00;;;4.15;100.00
23589;BME280;11972;48.078;11.876;2022-12-20T13:59:15;95611.84;;;4.06;100.00
23589;BME280;11972;48.078;11.876;2022-12-20T14:03:25;95610.47;;;4.02;100.00
23589;BME280;11972;48.078;11.876;2022-12-20T14:07:28;95606.63;;;3.96;100.00
23589;BME280;11972;48.078;11.876;2022-12-20T14:11:31;95604.28;;;3.93;100.00
23589;BME280;11972;48.078;11.876;2022-12-20T14:15:33;95593.28;;;3.89;100.00
23589;BME280;11972;48.078;11.876;2022-12-20T14:19:34;95589.28;;;3.95;100.00
23589;BME280;11972;48.078;11.876;2022-12-20T14:23:43;95589.94;;;4.07;100.00
23589;BME280;11972;48.078;11.876;2022-12-20T14:27:45;95595.00;;;4.28;100.00
23589;BME280;11972;48.078;11.876;2022-12-20T14:31:47;95577.03;;;4.52;100.00
23589;BME280;11972;48.078;11.876;2022-12-20T14:35:48;95565.13;;;4.67;100.00
23589;BME280;11972;48.078;11.876;2022-12-20T14:40:14;95551.28;;;4.57;100.00
23589;BME280;11972;48.078;11.876;2022-12-20T14:44:16;95552.75;;;4.32;100.00
23589;BME280;11972;48.078;11.876;2022-12-20T14:48:19;95547.31;;;4.16;100.00
23589;BME280;11972;48.078;11.876;2022-12-20T14:52:35;95541.72;;;3.91;100.00
23589;BME280;11972;48.078;11.876;2022-12-20T14:56:37;95539.28;;;3.70;100.00
23589;BME280;11972;48.078;11.876;2022-12-20T15:00:37;95532.41;;;3.60;100.00
23589;BME280;11972;48.078;11.876;2022-12-20T15:04:37;95532.69;;;3.57;100.00
23589;BME280;11972;48.078;11.876;2022-12-20T15:08:38;95545.72;;;3.57;100.00
23589;BME280;11972;48.078;11.876;2022-12-20T15:12:39;95550.28;;;3.55;100.00
23589;BME280;11972;48.078;11.876;2022-12-20T15:16:48;95561.28;;;3.48;100.00
23589;BME280;11972;48.078;11.876;2022-12-20T15:20:59;95554.94;;;3.41;100.00
23589;BME280;11972;48.078;11.876;2022-12-20T15:25:00;95559.50;;;3.39;100.00
23589;BME280;11972;48.078;11.876;2022-12-20T15:29:01;95543.97;;;3.38;100.00
23589;BME280;11972;48.078;11.876;2022-12-20T15:33:01;95533.66;;;3.36;100.00
23589;BME280;11972;48.078;11.876;2022-12-20T15:37:02;95525.81;;;3.36;100.00
23589;BME280;11972;48.078;11.876;2022-12-20T15:41:05;95518.41;;;3.32;100.00
23589;BME280;11972;48.078;11.876;2022-12-20T15:45:05;95519.22;;;3.32;100.00
23589;BME280;11972;48.078;11.876;2022-12-20T15:49:12;95511.81;;;3.28;100.00
23589;BME280;11972;48.078;11.876;2022-12-20T15:53:14;95509.34;;;3.26;100.00
23589;BME280;11972;48.078;11.876;2022-12-20T15:57:15;95519.78;;;3.26;100.00
23589;BME280;11972;48.078;11.876;2022-12-20T16:01:21;95518.97;;;3.26;100.00
23589;BME280;11972;48.078;11.876;2022-12-20T16:05:23;95524.19;;;3.26;100.00
23589;BME280;11972;48.078;11.876;2022-12-20T16:09:23;95524.03;;;3.27;100.00
23589;BME280;11972;48.078;11.876;2022-12-20T16:13:24;95529.25;;;3.27;100.00
23589;BME280;11972;48.078;11.876;2022-12-20T16:17:25;95523.38;;;3.25;100.00
23589;BME280;11972;48.078;11.876;2022-12-20T16:21:29;95525.28;;;3.23;100.00
23589;BME280;11972;48.078;11.876;2022-12-20T16:25:32;95542.72;;;3.22;100.00
23589;BME280;11972;48.078;11.876;2022-12-20T16:29:33;95534.91;;;3.22;100.00
23589;BME280;11972;48.078;11.876;2022-12-20T16:33:33;95534.19;;;3.20;100.00
23589;BME280;11972;48.078;11.876;2022-12-20T16:37:34;95525.53;;;3.20;100.00
23589;BME280;11972;48.078;11.876;2022-12-20T16:41:35;95517.59;;;3.21;100.00
23589;BME280;11972;48.078;11.876;2022-12-20T16:45:35;95514.81;;;3.23;100.00
23589;BME280;11972;48.078;11.876;2022-12-20T16:49:36;95509.88;;;3.20;100.00
23589;BME280;11972;48.078;11.876;2022-12-20T16:53:36;95510.16;;;3.17;100.00
23589;BME280;11972;48.078;11.876;2022-12-20T16:57:36;95495.88;;;3.11;100.00
23589;BME280;11972;48.078;11.876;2022-12-20T17:01:38;95491.75;;;3.09;100.00
23589;BME280;11972;48.078;11.876;2022-12-20T17:05:39;95493.13;;;3.03;100.00
23589;BME280;11972;48.078;11.876;2022-12-20T17:09:39;95514.81;;;3.04;100.00
23589;BME280;11972;48.078;11.876;2022-12-20T17:13:40;95510.28;;;3.06;100.00
23589;BME280;11972;48.078;11.876;2022-12-20T17:17:40;95510.16;;;3.07;100.00
23589;BME280;11972;48.078;11.876;2022-12-20T17:21:47;95510.97;;;3.08;100.00
23589;BME280;11972;48.078;11.876;2022-12-20T17:25:48;95508.34;;;3.08;100.00
23589;BME280;11972;48.078;11.876;2022-12-20T17:29:48;95505.06;;;3.06;100.00
23589;BME280;11972;48.078;11.876;2022-12-20T17:33:49;95525.25;;;3.04;100.00
23589;BME280;11972;48.078;11.876;2022-12-20T17:37:50;95519.47;;;3.00;100.00
23589;BME280;11972;48.078;11.876;2022-12-20T17:41:54;95535.28;;;2.98;100.00
23589;BME280;11972;48.078;11.876;2022-12-20T17:45:54;95523.59;;;2.93;100.00
23589;BME280;11972;48.078;11.876;2022-12-20T17:49:55;95527.44;;;2.89;100.00
23589;BME280;11972;48.078;11.876;2022-12-20T17:53:57;95520.03;;;2.84;100.00
23589;BME280;11972;48.078;11.876;2022-12-20T17:57:58;95520.84;;;2.85;100.00
23589;BME280;11972;48.078;11.876;2022-12-20T18:01:58;95503.81;;;2.81;100.00
23589;BME280;11972;48.078;11.876;2022-12-20T18:05:58;95511.75;;;2.79;100.00
23589;BME280;11972;48.078;11.876;2022-12-20T18:09:59;95514.66;;;2.76;100.00
23589;BME280;11972;48.078;11.876;2022-12-20T18:14:00;95526.06;;;2.85;100.00
23589;BME280;11972;48.078;11.876;2022-12-20T18:18:01;95521.41;;;2.88;100.00
23589;BME280;11972;48.078;11.876;2022-12-20T18:22:01;95519.78;;;2.97;100.00
23589;BME280;11972;48.078;11.876;2022-12-20T18:30:13;95526.06;;;3.04;100.00
23589;BME280;11972;48.078;11.876;2022-12-20T18:34:14;95503.44;;;3.05;100.00
23589;BME280;11972;48.078;11.876;2022-12-20T18:38:14;95520.44;;;2.99;100.00
23589;BME280;11972;48.078;11.876;2022-12-20T18:42:15;95524.69;;;3.00;100.00
23589;BME280;11972;48.078;11.876;2022-12-20T18:46:18;95511.13;;;2.96;100.00
23589;BME280;11972;48.078;11.876;2022-12-20T18:50:19;95511.13;;;2.96;100.00
23589;BME280;11972;48.078;11.876;2022-12-20T18:54:20;95503.81;;;2.90;100.00
23589;BME280;11972;48.078;11.876;2022-12-20T18:58:20;95520.41;;;2.70;100.00
23589;BME280;11972;48.078;11.876;2022-12-20T19:02:20;95513.56;;;2.38;100.00
23589;BME280;11972;48.078;11.876;2022-12-20T19:06:21;95501.41;;;2.08;100.00
23589;BME280;11972;48.078;11.876;2022-12-20T19:10:22;95493.06;;;1.84;100.00
23589;BME280;11972;48.078;11.876;2022-12-20T19:14:23;95486.53;;;1.68;100.00
23589;BME280;11972;48.078;11.876;2022-12-20T19:18:23;95491.75;;;1.47;100.00
23589;BME280;11972;48.078;11.876;2022-12-20T19:22:23;95491.13;;;1.34;100.00
23589;BME280;11972;48.078;11.876;2022-12-20T19:26:26;95491.06;;;1.24;100.00
23589;BME280;11972;48.078;11.876;2022-12-20T19:30:27;95478.91;;;1.14;100.00
23589;BME280;11972;48.078;11.876;2022-12-20T19:34:27;95486.84;;;1.12;100.00
23589;BME280;11972;48.078;11.876;2022-12-20T19:38:28;95477.13;;;1.14;100.00
23589;BME280;11972;48.078;11.876;2022-12-20T19:42:28;95469.41;;;1.24;100.00
23589;BME280;11972;48.078;11.876;2022-12-20T19:46:29;95468.66;;;1.33;100.00
23589;BME280;11972;48.078;11.876;2022-12-20T19:50:30;95459.13;;;1.43;100.00
23589;BME280;11972;48.078;11.876;2022-12-20T19:54:30;95456.69;;;1.52;100.00
23589;BME280;11972;48.078;11.876;2022-12-20T19:58:31;95465.16;;;1.65;100.00
23589;BME280;11972;48.078;11.876;2022-12-20T20:02:31;95459.03;;;1.76;100.00
23589;BME280;11972;48.078;11.876;2022-12-20T20:06:31;95451.38;;;1.84;100.00
23589;BME280;11972;48.078;11.876;2022-12-20T20:10:32;95445.28;;;1.94;100.00
23589;BME280;11972;48.078;11.876;2022-12-20T20:14:32;95451.22;;;2.06;100.00
23589;BME280;11972;48.078;11.876;2022-12-20T20:18:34;95445.31;;;2.14;100.00
23589;BME280;11972;48.078;11.876;2022-12-20T20:22:34;95433.56;;;2.19;100.00
23589;BME280;11972;48.078;11.876;2022-12-20T20:26:35;95430.41;;;2.26;100.00
23589;BME280;11972;48.078;11.876;2022-12-20T20:30:41;95429.84;;;2.22;100.00
23589;BME280;11972;48.078;11.876;2022-12-20T20:34:42;95426.31;;;2.23;100.00
23589;BME280;11972;48.078;11.876;2022-12-20T20:38:43;95414.19;;;2.22;100.00
23589;BME280;11972;48.078;11.876;2022-12-20T20:42:44;95415.88;;;2.23;100.00
23589;BME280;11972;48.078;11.876;2022-12-20T20:46:45;95412.03;;;2.27;100.00
23589;BME280;11972;48.078;11.876;2022-12-20T20:50:45;95446.91;;;2.36;100.00
23589;BME280;11972;48.078;11.876;2022-12-20T20:54:45;95441.16;;;2.42;100.00
23589;BME280;11972;48.078;11.876;2022-12-20T20:58:46;95439.34;;;2.42;100.00
23589;BME280;11972;48.078;11.876;2022-12-20T21:02:47;95449.25;;;2.39;100.00
23589;BME280;11972;48.078;11.876;2022-12-20T21:06:47;95431.53;;;2.42;100.00
23589;BME280;11972;48.078;11.876;2022-12-20T21:10:48;95415.47;;;2.37;100.00
23589;BME280;11972;48.078;11.876;2022-12-20T21:14:48;95419.31;;;2.33;100.00
23589;BME280;11972;48.078;11.876;2022-12-20T21:18:53;95411.22;;;2.36;100.00
23589;BME280;11972;48.078;11.876;2022-12-20T21:22:53;95406.44;;;2.41;100.00
23589;BME280;11972;48.078;11.876;2022-12-20T21:26:54;95406.16;;;2.44;100.00
23589;BME280;11972;48.078;11.876;2022-12-20T21:30:59;95415.38;;;2.48;100.00
23589;BME280;11972;48.078;11.876;2022-12-20T21:35:00;95394.25;;;2.52;100.00
23589;BME280;11972;48.078;11.876;2022-12-20T21:39:01;95374.63;;;2.57;100.00
23589;BME280;11972;48.078;11.876;2022-12-20T21:43:02;95363.22;;;2.58;100.00
23589;BME280;11972;48.078;11.876;2022-12-20T21:47:02;95341.00;;;2.64;100.00
23589;BME280;11972;48.078;11.876;2022-12-20T21:51:05;95374.19;;;2.62;100.00
23589;BME280;11972;48.078;11.876;2022-12-20T21:55:08;95392.88;;;2.57;100.00
23589;BME280;11972;48.078;11.876;2022-12-20T21:59:09;95411.94;;;2.58;100.00
23589;BME280;11972;48.078;11.876;2022-12-20T22:03:10;95404.13;;;2.58;100.00
23589;BME280;11972;48.078;11.876;2022-12-20T22:07:10;95396.03;;;2.61;100.00
23589;BME280;11972;48.078;11.876;2022-12-20T22:11:12;95401.09;;;2.62;100.00
23589;BME280;11972;48.078;11.876;2022-12-20T22:15:13;95398.63;;;2.61;100.00
23589;BME280;11972;48.078;11.876;2022-12-20T22:19:13;95405.09;;;2.57;100.00
23589;BME280;11972;48.078;11.876;2022-12-20T22:23:15;95418.38;;;2.54;100.00
23589;BME280;11972;48.078;11.876;2022-12-20T22:27:15;95425.53;;;2.61;100.00
23589;BME280;11972;48.078;11.876;2022-12-20T22:31:16;95439.53;;;2.70;100.00
23589;BME280;11972;48.078;11.876;2022-12-20T22:35:16;95439.94;;;2.75;100.00
23589;BME280;11972;48.078;11.876;2022-12-20T22:39:16;95444.22;;;2.76;100.00